»·PEaware :: N87UP MMCS-KIGM

N87UP :: MMCS-KIGM

FLIGHT INFORMATION

Flight Status: Arrived
Operator: Privately registered:
United States
More flights under this callsign
Pilot: Nathan B. (19040)
Aircraft: CESSNA 525A CITATION CJ2
(C25A)
More flights by this aircraft type
Origin: MMCS Abraham Gonzalez Intl
Mexico
Destination: KIGM Kingman
United States
More flights between these airports :: More routes between these airports
Route:
File this flight plan on PilotEdge
Remarks:
Altitude:
(Current/Filed)
16,500ft
Speed:
(Current/Filed)
400kts
Departed: 06-Mar-21 10:53 AM
Arrived: 06-Mar-21 12:25 PM
Distance/Time
Traveled:
434nm/1:32
Distance/Time
To Go:
Arrived

Flight Plot

Page will automatically refresh every two minutes.

Flight plan parsing failed; only flown route is shown


Map Options




Map Legend


Flown Route
Filed Route
Departure Airport
Arrival Airport
Navaid (VOR, NDB)
Fix

Horizontal Profiles

Position Reports

Time Latitude Longitude Heading Altitude Ground
Speed
06-Mar-21 10:48 31.639864 -106.431681 21 3900ft 5kts
06-Mar-21 10:49 31.640243 -106.431509 21 3900ft 11kts
06-Mar-21 10:50 31.643251 -106.432296 117 3904ft 4kts
06-Mar-21 10:51 31.643187 -106.432252 152 3904ft 0kts
06-Mar-21 10:52 31.632147 -106.426628 155 3896ft 132kts
06-Mar-21 10:53 31.622956 -106.420197 68 3904ft 0kts
06-Mar-21 10:57 31.637585 -106.429405 158 3894ft 23kts
06-Mar-21 10:58 31.632151 -106.432854 221 3895ft 25kts
06-Mar-21 10:59 31.631374 -106.433346 37 3895ft 79kts
06-Mar-21 11:00 31.663971 -106.402016 43 4521ft 198kts
06-Mar-21 11:01 31.713979 -106.430787 321 8041ft 234kts
06-Mar-21 11:02 31.765798 -106.477945 321 11542ft 237kts
06-Mar-21 11:03 31.807601 -106.536488 297 14689ft 236kts
06-Mar-21 11:04 31.843139 -106.607892 299 16439ft 291kts
06-Mar-21 11:05 31.892534 -106.703770 299 16579ft 371kts
06-Mar-21 11:06 31.942694 -106.800662 299 16483ft 323kts
06-Mar-21 11:07 31.986229 -106.885992 298 16465ft 286kts
06-Mar-21 11:08 32.025113 -106.961829 298 16465ft 255kts
06-Mar-21 11:09 32.059629 -107.029422 296 16459ft 224kts
06-Mar-21 11:10 32.092583 -107.095485 298 16813ft 260kts
06-Mar-21 11:11 32.137350 -107.183592 299 16642ft 357kts
06-Mar-21 11:12 32.190522 -107.288087 299 16534ft 370kts
06-Mar-21 11:13 32.242305 -107.390512 298 16494ft 358kts
06-Mar-21 11:14 32.292515 -107.490310 298 16490ft 349kts
06-Mar-21 11:15 32.341698 -107.588283 298 16493ft 343kts
06-Mar-21 11:16 32.389753 -107.684242 298 16496ft 338kts
06-Mar-21 11:17 32.437772 -107.780438 298 16501ft 341kts
06-Mar-21 11:18 32.486105 -107.877490 298 16503ft 342kts
06-Mar-21 11:19 32.534391 -107.974681 298 16501ft 343kts
06-Mar-21 11:20 32.582886 -108.072542 298 16499ft 344kts
06-Mar-21 11:21 32.631338 -108.170597 298 16501ft 345kts
06-Mar-21 11:22 32.679977 -108.269282 298 16495ft 346kts
06-Mar-21 11:23 32.728439 -108.367845 298 16493ft 346kts
06-Mar-21 11:24 32.776723 -108.466326 298 16501ft 345kts
06-Mar-21 11:25 32.825080 -108.565265 298 16501ft 345kts
06-Mar-21 11:26 32.873327 -108.664168 297 16479ft 346kts
06-Mar-21 11:27 32.881361 -108.680686 297 16416ft 348kts
06-Mar-21 11:28 32.908131 -108.735768 297 16359ft 350kts
06-Mar-21 11:29 32.956861 -108.836083 297 16328ft 350kts
06-Mar-21 11:30 33.005622 -108.936852 297 16315ft 350kts
06-Mar-21 11:31 33.019902 -108.966403 297 16317ft 350kts
06-Mar-21 11:33 33.019902 -108.966403 297 16317ft 350kts
06-Mar-21 11:34 33.061623 -109.052903 297 16308ft 349kts
06-Mar-21 11:35 33.109815 -109.153002 297 16310ft 348kts
06-Mar-21 11:36 33.157940 -109.253342 297 16317ft 347kts
06-Mar-21 11:37 33.205661 -109.353010 297 16361ft 345kts
06-Mar-21 11:38 33.253224 -109.452685 297 16383ft 345kts
06-Mar-21 11:39 33.300631 -109.552292 297 16359ft 345kts
06-Mar-21 11:40 33.348004 -109.652121 297 16376ft 344kts
06-Mar-21 11:41 33.396039 -109.753681 297 16499ft 362kts
06-Mar-21 11:42 33.446109 -109.859742 297 16430ft 372kts
06-Mar-21 11:43 33.495343 -109.964364 297 16386ft 345kts
06-Mar-21 11:44 33.540883 -110.061419 297 16364ft 322kts
06-Mar-21 11:45 33.583377 -110.152393 297 16377ft 304kts
06-Mar-21 11:46 33.624820 -110.241386 297 16394ft 324kts
06-Mar-21 11:47 33.672332 -110.343262 297 16402ft 362kts
06-Mar-21 11:48 33.722265 -110.450618 297 16369ft 367kts
06-Mar-21 11:49 33.771318 -110.556934 297 16346ft 360kts
06-Mar-21 11:50 33.819712 -110.661494 297 16346ft 356kts
06-Mar-21 11:51 33.867388 -110.765323 297 16336ft 351kts
06-Mar-21 11:51 33.906546 -110.850972 297 16340ft 349kts
06-Mar-21 11:53 33.960782 -110.969492 296 16474ft 346kts
06-Mar-21 11:54 34.007773 -111.072125 297 16510ft 354kts
06-Mar-21 11:55 34.055506 -111.177402 297 16510ft 361kts
06-Mar-21 11:55 34.095865 -111.266535 296 16528ft 366kts
06-Mar-21 11:56 34.145085 -111.375066 296 16507ft 370kts
06-Mar-21 11:58 34.202219 -111.501944 296 16491ft 367kts
06-Mar-21 11:59 34.250561 -111.609822 296 16422ft 363kts
06-Mar-21 11:59 34.290517 -111.699113 296 16469ft 361kts
06-Mar-21 12:01 34.346320 -111.823941 296 16310ft 363kts
06-Mar-21 12:01 34.386226 -111.913466 296 16276ft 366kts
06-Mar-21 12:02 34.434374 -112.022099 296 16245ft 366kts
06-Mar-21 12:03 34.482306 -112.130536 296 16230ft 364kts
06-Mar-21 12:05 34.537709 -112.256163 296 16367ft 360kts
06-Mar-21 12:05 34.576877 -112.345501 296 16389ft 358kts
06-Mar-21 12:06 34.623239 -112.451346 296 16403ft 357kts
06-Mar-21 12:07 34.669898 -112.558122 295 16398ft 358kts
06-Mar-21 12:08 34.716601 -112.665273 295 16402ft 358kts
06-Mar-21 12:09 34.762123 -112.773240 292 16274ft 360kts
06-Mar-21 12:10 34.807722 -112.881995 295 16223ft 361kts
06-Mar-21 12:11 34.854653 -112.990246 295 15544ft 350kts
06-Mar-21 12:12 34.898499 -113.088677 295 13842ft 316kts
06-Mar-21 12:13 34.939706 -113.179115 295 12361ft 289kts
06-Mar-21 12:14 34.977452 -113.260719 295 12215ft 300kts
06-Mar-21 12:15 35.018049 -113.361435 285 12283ft 326kts
06-Mar-21 12:16 35.044296 -113.464661 283 12226ft 316kts
06-Mar-21 12:17 35.069719 -113.567098 283 12233ft 314kts
06-Mar-21 12:18 35.095075 -113.668722 283 12325ft 311kts
06-Mar-21 12:19 35.120321 -113.769012 283 12314ft 306kts
06-Mar-21 12:20 35.145173 -113.867013 283 11881ft 302kts
06-Mar-21 12:21 35.170327 -113.963979 283 10602ft 293kts
06-Mar-21 12:22 35.222616 -114.015798 23 9169ft 274kts
06-Mar-21 12:23 35.247772 -113.952180 45 3769ft 194kts
06-Mar-21 12:24 35.261308 -113.936612 334 3402ft 29kts

Navigation Log

Ident Type
Flight plan parsing failed, navigation log unavailable